Time,TemperatureF,DewpointF,PressureIn,WindDirection,WindDirectionDegrees,WindSpeedMPH,WindSpeedGustMPH,Humidity,HourlyPrecipIn,Conditions,Clouds,dailyrainin,SoftwareType,DateUTC
2013-09-04 00:00:00,68.9,58.7,30.24,East,79,0.0,2.7,70,-99.99,,,0.00,VWS V14.01,2013-09-04 04:00:00,
2013-09-04 00:30:00,68.5,59.2,30.27,ENE,63,0.0,3.1,72,-99.99,,,0.00,VWS V14.01,2013-09-04 04:30:00,
2013-09-04 01:00:00,68.0,58.7,30.27,ENE,65,0.0,0.0,72,-99.99,,,0.00,VWS V14.01,2013-09-04 05:00:00,
2013-09-04 01:30:00,67.6,59.8,30.27,ENE,66,0.0,0.0,76,-99.99,,,0.00,VWS V14.01,2013-09-04 05:30:00,
2013-09-04 02:00:00,67.5,60.0,30.27,ENE,70,0.0,3.1,77,-99.99,,,0.00,VWS V14.01,2013-09-04 06:00:00,
2013-09-04 02:30:00,67.1,58.9,30.24,ENE,66,0.0,3.6,75,-99.99,,,0.00,VWS V14.01,2013-09-04 06:30:00,
2013-09-04 03:00:00,66.7,58.9,30.24,ENE,62,0.0,2.7,76,-99.99,,,0.00,VWS V14.01,2013-09-04 07:00:00,
2013-09-04 03:30:00,66.4,58.2,30.24,ENE,57,0.0,2.7,75,-99.99,,,0.00,VWS V14.01,2013-09-04 07:30:00,
2013-09-04 04:00:00,66.0,58.6,30.24,ENE,58,0.0,2.7,77,-99.99,,,0.00,VWS V14.01,2013-09-04 08:00:00,
2013-09-04 04:30:00,65.7,58.6,30.24,ENE,71,0.0,0.0,78,-99.99,,,0.00,VWS V14.01,2013-09-04 08:30:00,
2013-09-04 05:00:00,65.3,58.6,30.24,ENE,72,0.0,0.0,79,-99.99,,,0.00,VWS V14.01,2013-09-04 09:00:00,
2013-09-04 05:30:00,64.6,58.3,30.27,ENE,71,0.0,0.0,80,-99.99,,,0.00,VWS V14.01,2013-09-04 09:30:00,
2013-09-04 06:00:00,64.0,58.1,30.27,ENE,71,0.0,0.0,81,-99.99,,,0.00,VWS V14.01,2013-09-04 10:00:00,
2013-09-04 06:30:00,64.4,59.1,30.27,ENE,60,0.0,2.7,83,-99.99,,,0.00,VWS V14.01,2013-09-04 10:30:00,
2013-09-04 07:00:00,64.2,59.3,30.27,ENE,60,0.0,0.0,84,-99.99,,,0.00,VWS V14.01,2013-09-04 11:00:00,
2013-09-04 07:30:00,64.2,60.0,30.30,ENE,59,0.0,0.0,86,-99.99,,,0.00,VWS V14.01,2013-09-04 11:30:00,
2013-09-04 08:00:00,64.2,60.3,30.30,ENE,61,0.0,0.0,87,-99.99,,,0.00,VWS V14.01,2013-09-04 12:00:00,
2013-09-04 08:30:00,64.4,60.8,30.30,ENE,59,0.0,0.0,88,-99.99,,,0.00,VWS V14.01,2013-09-04 12:30:00,
2013-09-04 09:00:00,65.1,61.5,30.30,ENE,61,0.0,0.0,88,-99.99,,,0.00,VWS V14.01,2013-09-04 13:00:00,
2013-09-04 09:30:00,66.0,62.7,30.33,ENE,62,0.0,0.0,89,-99.99,,,0.00,VWS V14.01,2013-09-04 13:30:00,
2013-09-04 10:00:00,66.9,63.6,30.33,ENE,59,0.0,0.0,89,-99.99,,,0.00,VWS V14.01,2013-09-04 14:00:00,
2013-09-04 10:30:00,68.5,65.5,30.33,NE,48,0.0,0.0,90,-99.99,,,0.00,VWS V14.01,2013-09-04 14:30:00,
2013-09-04 11:00:00,70.3,66.9,30.36,NE,48,0.0,0.0,89,-99.99,,,0.00,VWS V14.01,2013-09-04 15:00:00,
2013-09-04 11:30:00,72.1,68.1,30.36,NNE,17,0.0,0.0,87,-99.99,,,0.00,VWS V14.01,2013-09-04 15:30:00,
2013-09-04 12:00:00,72.3,64.0,30.36,NNE,17,0.0,0.0,75,-99.99,,,0.00,VWS V14.01,2013-09-04 16:00:00,
2013-09-04 12:30:00,75.2,62.6,30.36,SSW,206,0.0,0.0,65,-99.99,,,0.00,VWS V14.01,2013-09-04 16:30:00,
2013-09-04 13:00:00,75.4,57.6,30.36,SSW,213,0.0,0.0,54,-99.99,,,0.00,VWS V14.01,2013-09-04 17:00:00,
2013-09-04 13:30:00,77.2,60.8,30.36,NE,53,0.0,2.7,57,-99.99,,,0.00,VWS V14.01,2013-09-04 17:30:00,
2013-09-04 14:00:00,78.6,56.7,30.36,ENE,59,0.0,0.0,47,-99.99,,,0.00,VWS V14.01,2013-09-04 18:00:00,
2013-09-04 14:30:00,80.1,56.2,30.33,SSW,210,0.0,0.0,44,-99.99,,,0.00,VWS V14.01,2013-09-04 18:30:00,
2013-09-04 15:00:00,83.7,57.5,30.33,ENE,72,0.0,2.7,41,-99.99,,,0.00,VWS V14.01,2013-09-04 19:00:00,
2013-09-04 15:30:00,86.0,57.5,30.33,SW,225,0.0,0.0,38,-99.99,,,0.00,VWS V14.01,2013-09-04 19:30:00,
2013-09-04 16:00:00,88.0,57.7,30.33,WSW,249,0.0,3.6,36,-99.99,,,0.00,VWS V14.01,2013-09-04 20:00:00,
2013-09-04 16:30:00,87.4,54.0,30.33,SW,232,0.0,0.0,32,-99.99,,,0.00,VWS V14.01,2013-09-04 20:30:00,
2013-09-04 17:00:00,88.2,52.8,30.33,WSW,255,0.0,0.0,30,-99.99,,,0.00,VWS V14.01,2013-09-04 21:00:00,
2013-09-04 17:30:00,88.3,54.8,30.30,NNE,30,0.0,0.0,32,-99.99,,,0.00,VWS V14.01,2013-09-04 21:30:00,
2013-09-04 18:00:00,82.8,52.3,30.30,NE,39,0.0,0.0,35,-99.99,,,0.00,VWS V14.01,2013-09-04 22:00:00,
2013-09-04 18:30:00,79.2,55.4,30.30,ENE,64,0.0,0.0,44,-99.99,,,0.00,VWS V14.01,2013-09-04 22:30:00,
2013-09-04 19:00:00,77.4,56.7,30.30,NNE,19,0.0,0.0,49,-99.99,,,0.00,VWS V14.01,2013-09-04 23:00:00,
2013-09-04 19:30:00,75.4,57.6,30.30,NNE,18,0.0,0.0,54,-99.99,,,0.00,VWS V14.01,2013-09-04 23:30:00,
2013-09-04 20:00:00,73.6,57.4,30.30,NNE,19,0.0,0.0,57,-99.99,,,0.00,VWS V14.01,2013-09-05 00:00:00,
2013-09-04 20:30:00,71.8,57.6,30.33,WSW,243,0.0,0.0,61,-99.99,,,0.00,VWS V14.01,2013-09-05 00:30:00,
2013-09-04 21:00:00,71.2,58.0,30.33,SW,234,0.0,0.0,63,-99.99,,,0.00,VWS V14.01,2013-09-05 01:00:00,
2013-09-04 21:30:00,70.7,57.1,30.33,WSW,238,0.0,0.0,62,-99.99,,,0.00,VWS V14.01,2013-09-05 01:30:00,
2013-09-04 22:00:00,69.1,55.5,30.36,SW,233,0.0,0.0,62,-99.99,,,0.00,VWS V14.01,2013-09-05 02:00:00,
2013-09-04 22:30:00,67.6,55.9,30.36,WSW,241,0.0,0.0,66,-99.99,,,0.00,VWS V14.01,2013-09-05 02:30:00,
2013-09-04 23:00:00,66.6,56.5,30.36,WSW,245,0.0,0.0,70,-99.99,,,0.00,VWS V14.01,2013-09-05 03:00:00,
2013-09-04 23:30:00,66.4,57.5,30.36,SW,226,0.0,0.0,73,-99.99,,,0.00,VWS V14.01,2013-09-05 03:30:00,